createdAt,value
2023-01-12T00:00:10.489Z,8.73
2023-01-12T00:02:36.823Z,8.73
2023-01-12T00:05:03.086Z,8.72
2023-01-12T00:07:29.501Z,8.73
2023-01-12T00:09:55.814Z,8.72
2023-01-12T00:12:22.228Z,8.71
2023-01-12T00:14:48.534Z,8.71
2023-01-12T00:17:14.896Z,8.69
2023-01-12T00:19:41.273Z,8.66
2023-01-12T00:22:07.599Z,8.69
2023-01-12T00:24:33.941Z,8.68
2023-01-12T00:27:00.306Z,8.67
2023-01-12T00:29:26.703Z,8.67
2023-01-12T00:31:53.086Z,8.68
2023-01-12T00:34:19.458Z,8.68
2023-01-12T00:36:45.774Z,8.69
2023-01-12T00:39:12.140Z,8.69
2023-01-12T00:41:38.469Z,8.68
2023-01-12T00:44:04.815Z,8.68
2023-01-12T00:46:31.239Z,8.68
2023-01-12T00:48:57.565Z,8.67
2023-01-12T00:51:23.935Z,8.66
2023-01-12T00:53:50.274Z,8.65
2023-01-12T00:56:16.762Z,8.65
2023-01-12T00:58:43.077Z,8.64
2023-01-12T01:01:09.457Z,8.63
2023-01-12T01:03:35.782Z,8.64
2023-01-12T01:06:02.149Z,8.62
2023-01-12T01:08:36.183Z,8.61
2023-01-12T01:11:02.651Z,8.61
2023-01-12T01:13:29.027Z,8.61
2023-01-12T01:15:55.440Z,8.60
2023-01-12T01:18:21.845Z,8.59
2023-01-12T01:20:48.212Z,8.59
2023-01-12T01:23:14.577Z,8.59
2023-01-12T01:25:40.943Z,8.58
2023-01-12T01:28:07.302Z,8.57
2023-01-12T01:30:33.623Z,8.55
2023-01-12T01:33:00.000Z,8.54
2023-01-12T01:35:26.356Z,8.55
2023-01-12T01:37:52.652Z,8.54
2023-01-12T01:40:19.042Z,8.54
2023-01-12T01:42:45.399Z,8.52
2023-01-12T01:45:11.745Z,8.51
2023-01-12T01:47:38.085Z,8.51
2023-01-12T01:50:04.457Z,8.52
2023-01-12T01:52:30.825Z,8.50
2023-01-12T01:54:57.202Z,8.50
2023-01-12T01:57:23.595Z,8.49
2023-01-12T01:59:49.912Z,8.48
2023-01-12T02:02:16.366Z,8.48
2023-01-12T02:04:42.604Z,8.47
2023-01-12T02:07:08.986Z,8.46
2023-01-12T02:09:35.344Z,8.46
2023-01-12T02:12:01.724Z,8.42
2023-01-12T02:14:28.130Z,8.43
2023-01-12T02:16:54.484Z,8.43
2023-01-12T02:19:20.827Z,8.43
2023-01-12T02:21:47.204Z,8.42
2023-01-12T02:24:13.540Z,8.42
2023-01-12T02:26:39.906Z,8.43
2023-01-12T02:29:06.234Z,8.42
2023-01-12T02:31:32.620Z,8.43
2023-01-12T02:33:58.933Z,8.44
2023-01-12T02:36:25.290Z,8.42
2023-01-12T02:38:51.656Z,8.41
2023-01-12T02:41:18.028Z,8.41
2023-01-12T02:43:44.340Z,8.41
2023-01-12T02:46:10.729Z,8.40
2023-01-12T02:48:37.002Z,8.39
2023-01-12T02:51:03.371Z,8.39
2023-01-12T02:53:29.729Z,8.38
2023-01-12T02:55:56.099Z,8.39
2023-01-12T02:58:22.418Z,8.38
2023-01-12T03:00:48.747Z,8.38
2023-01-12T03:03:15.193Z,8.37
2023-01-12T03:05:41.497Z,8.36
2023-01-12T03:08:07.876Z,8.35
2023-01-12T03:10:34.224Z,8.33
2023-01-12T03:13:00.595Z,8.34
2023-01-12T03:15:26.908Z,8.34
2023-01-12T03:17:53.263Z,8.33
2023-01-12T03:20:19.647Z,8.33
2023-01-12T03:22:46.001Z,8.32
2023-01-12T03:25:12.383Z,8.31
2023-01-12T03:27:38.734Z,8.32
2023-01-12T03:30:05.105Z,8.31
2023-01-12T03:32:31.478Z,8.30
2023-01-12T03:34:57.821Z,8.29
2023-01-12T03:37:24.176Z,8.30
2023-01-12T03:39:50.514Z,8.29
2023-01-12T03:42:16.892Z,8.28
2023-01-12T03:44:43.266Z,8.25
2023-01-12T03:47:09.666Z,8.27
2023-01-12T03:49:35.979Z,8.27
2023-01-12T03:52:02.299Z,8.27
2023-01-12T03:54:28.644Z,8.26
2023-01-12T03:56:54.987Z,8.26
2023-01-12T03:59:21.374Z,8.27
2023-01-12T04:01:47.853Z,8.26
2023-01-12T04:04:14.027Z,8.26
2023-01-12T04:06:40.378Z,8.25
2023-01-12T04:09:06.727Z,8.24
2023-01-12T04:11:33.049Z,8.26
2023-01-12T04:13:59.424Z,8.24
2023-01-12T04:16:25.840Z,8.24
2023-01-12T04:18:52.079Z,8.24
2023-01-12T04:21:18.400Z,8.24
2023-01-12T04:23:44.789Z,8.25
2023-01-12T04:26:11.207Z,8.23
2023-01-12T04:28:37.556Z,8.22
2023-01-12T04:31:03.911Z,8.22
2023-01-12T04:33:30.243Z,8.23
2023-01-12T04:35:56.576Z,8.24
2023-01-12T04:38:22.903Z,8.23
2023-01-12T04:40:49.227Z,8.23
2023-01-12T04:43:15.613Z,8.23
2023-01-12T04:45:42.094Z,8.23
2023-01-12T04:48:08.371Z,8.23
2023-01-12T04:50:34.692Z,8.22
2023-01-12T04:53:01.079Z,8.22
2023-01-12T04:55:27.411Z,8.20
2023-01-12T04:57:53.750Z,8.20
2023-01-12T05:00:20.071Z,8.21
2023-01-12T05:02:46.419Z,8.20
2023-01-12T05:05:12.811Z,8.19
2023-01-12T05:07:39.139Z,8.20
2023-01-12T05:10:05.494Z,8.20
2023-01-12T05:12:31.848Z,8.19
2023-01-12T05:14:58.156Z,8.20
2023-01-12T05:17:24.520Z,8.20
2023-01-12T05:19:50.882Z,8.20
2023-01-12T05:22:19.374Z,8.21
2023-01-12T05:24:45.747Z,8.20
2023-01-12T05:27:12.093Z,8.20
2023-01-12T05:29:38.497Z,8.19
2023-01-12T05:32:04.907Z,8.19
2023-01-12T05:34:31.265Z,8.18
2023-01-12T05:36:57.639Z,8.54
2023-01-12T05:39:23.953Z,9.73
2023-01-12T05:41:50.337Z,10.57
2023-01-12T05:44:16.652Z,11.02
2023-01-12T05:46:43.033Z,11.02
2023-01-12T05:49:09.349Z,10.78
2023-01-12T05:51:35.733Z,10.50
2023-01-12T05:54:02.057Z,10.29
2023-01-12T05:56:28.418Z,10.14
2023-01-12T05:58:54.764Z,10.06
2023-01-12T06:01:21.155Z,9.97
2023-01-12T06:03:47.528Z,9.90
2023-01-12T06:06:13.909Z,9.86
2023-01-12T06:08:40.275Z,9.83
2023-01-12T06:11:06.659Z,9.81
2023-01-12T06:13:32.970Z,9.80
2023-01-12T06:15:59.364Z,9.78
2023-01-12T06:18:25.664Z,9.75
2023-01-12T06:20:52.085Z,9.75
2023-01-12T06:23:18.396Z,9.74
2023-01-12T06:25:44.736Z,9.63
2023-01-12T06:28:11.063Z,9.49
2023-01-12T06:30:37.407Z,9.39
2023-01-12T06:33:03.878Z,9.35
2023-01-12T06:35:30.230Z,9.38
2023-01-12T06:37:56.558Z,9.44
2023-01-12T06:40:22.912Z,9.50
2023-01-12T06:42:49.322Z,9.54
2023-01-12T06:45:15.728Z,9.55
2023-01-12T06:47:42.042Z,9.57
2023-01-12T06:50:08.433Z,9.61
2023-01-12T06:52:34.793Z,9.63
2023-01-12T06:55:01.231Z,9.64
2023-01-12T06:57:27.493Z,9.67
2023-01-12T06:59:53.820Z,9.68
2023-01-12T07:02:20.254Z,9.71
2023-01-12T07:04:46.622Z,9.70
2023-01-12T07:07:12.944Z,9.73
2023-01-12T07:09:39.267Z,9.72
2023-01-12T07:12:05.588Z,9.65
2023-01-12T07:53:17.147Z,10.21
2023-01-12T07:55:43.508Z,10.22
2023-01-12T07:58:09.891Z,10.15
2023-01-12T08:00:36.760Z,10.09
2023-01-12T08:03:03.106Z,10.03
2023-01-12T08:05:29.490Z,10.08
2023-01-12T08:07:55.795Z,10.18
2023-01-12T08:10:22.611Z,10.26
2023-01-12T08:12:48.970Z,10.33
2023-01-12T08:15:15.372Z,10.42
2023-01-12T08:17:41.730Z,10.50
2023-01-12T08:20:08.106Z,10.56
2023-01-12T08:22:34.455Z,10.65
2023-01-12T08:25:00.815Z,10.73
2023-01-12T08:27:27.142Z,10.82
2023-01-12T08:29:53.524Z,10.90
2023-01-12T08:32:19.905Z,10.98
2023-01-12T08:34:46.256Z,11.03
2023-01-12T08:37:12.587Z,11.07
2023-01-12T08:39:39.038Z,11.14
2023-01-12T08:42:05.353Z,11.14
2023-01-12T08:44:31.832Z,11.08
2023-01-12T08:46:58.235Z,11.03
2023-01-12T08:49:24.668Z,11.00
2023-01-12T08:51:51.092Z,11.11
2023-01-12T08:54:17.431Z,11.23
2023-01-12T08:56:43.807Z,11.32
2023-01-12T08:59:10.129Z,11.38
2023-01-12T09:01:36.797Z,11.42
2023-01-12T09:04:02.998Z,11.46
2023-01-12T09:06:29.401Z,11.50
2023-01-12T09:08:55.864Z,11.55
2023-01-12T09:11:22.204Z,11.61
2023-01-12T09:13:48.523Z,11.66
2023-01-12T09:16:15.023Z,11.70
2023-01-12T09:18:41.326Z,11.74
2023-01-12T09:21:07.731Z,11.79
2023-01-12T09:23:33.994Z,11.90
2023-01-12T09:26:00.589Z,12.02
2023-01-12T09:28:27.093Z,12.20
2023-01-12T09:30:53.402Z,12.38
2023-01-12T09:33:19.773Z,12.57
2023-01-12T09:35:46.101Z,12.72
2023-01-12T09:38:12.515Z,12.84
2023-01-12T09:40:38.964Z,12.96
2023-01-12T09:43:05.281Z,13.08
2023-01-12T09:45:31.746Z,13.19
2023-01-12T09:47:59.695Z,13.32
2023-01-12T09:50:26.096Z,13.40
2023-01-12T09:52:52.525Z,13.39
2023-01-12T09:55:18.856Z,13.43
2023-01-12T09:57:45.256Z,13.54
2023-01-12T10:00:11.653Z,13.68
2023-01-12T10:02:38.206Z,13.82
2023-01-12T10:05:04.506Z,13.93
2023-01-12T10:07:30.861Z,14.04
2023-01-12T10:09:57.221Z,14.09
2023-01-12T10:12:23.627Z,14.09
2023-01-12T10:14:57.315Z,14.04
2023-01-12T10:17:23.679Z,13.99
2023-01-12T10:19:51.089Z,13.95
2023-01-12T10:22:17.277Z,13.91
2023-01-12T10:24:43.701Z,13.86
2023-01-12T10:27:10.143Z,13.81
2023-01-12T10:29:36.498Z,13.75
2023-01-12T10:32:02.912Z,13.67
2023-01-12T10:34:29.473Z,13.56
2023-01-12T10:36:55.983Z,13.49
2023-01-12T10:39:22.259Z,13.43
2023-01-12T10:41:48.897Z,13.36
2023-01-12T10:44:15.328Z,13.32
2023-01-12T10:46:41.748Z,13.25
2023-01-12T10:49:08.225Z,13.18
2023-01-12T10:51:34.614Z,13.12
2023-01-12T10:54:01.457Z,13.06
2023-01-12T10:56:27.866Z,12.94
2023-01-12T10:58:54.236Z,12.84
2023-01-12T11:01:20.719Z,12.79
2023-01-12T11:03:47.037Z,12.79
2023-01-12T11:06:13.411Z,12.79
2023-01-12T11:08:39.795Z,12.82
2023-01-12T11:11:06.387Z,12.82
2023-01-12T11:13:32.809Z,12.84
2023-01-12T11:15:59.723Z,12.85
2023-01-12T11:18:26.045Z,12.87
2023-01-12T11:20:52.413Z,12.87
2023-01-12T11:23:19.409Z,12.88
2023-01-12T11:25:45.805Z,12.90
2023-01-12T11:28:12.825Z,12.90
2023-01-12T11:30:39.303Z,12.95
2023-01-12T11:33:05.598Z,12.99
2023-01-12T11:35:31.914Z,13.04
2023-01-12T11:37:58.289Z,13.09
2023-01-12T11:40:24.645Z,13.14
2023-01-12T11:42:51.200Z,13.18
2023-01-12T11:45:17.629Z,13.20
2023-01-12T11:47:44.131Z,13.22
2023-01-12T11:50:10.529Z,13.26
2023-01-12T11:52:36.877Z,13.27
2023-01-12T11:55:03.262Z,13.32
2023-01-12T11:57:29.598Z,13.35
2023-01-12T11:59:56.011Z,13.35
2023-01-12T12:02:22.505Z,13.30
2023-01-12T12:04:48.906Z,13.27
2023-01-12T12:07:15.228Z,13.32
2023-01-12T12:09:41.615Z,13.38
2023-01-12T12:12:07.920Z,13.42
2023-01-12T12:14:34.290Z,13.43
2023-01-12T12:17:00.874Z,13.43
2023-01-12T12:19:27.281Z,13.46
2023-01-12T12:21:53.635Z,13.45
2023-01-12T12:24:20.003Z,13.42
2023-01-12T12:26:46.377Z,13.41
2023-01-12T12:29:13.295Z,13.41
2023-01-12T12:31:39.654Z,13.39
2023-01-12T12:34:06.078Z,13.38
2023-01-12T12:36:32.671Z,13.36
2023-01-12T12:38:59.033Z,13.32
2023-01-12T12:41:25.359Z,13.27
2023-01-12T12:43:51.740Z,13.23
2023-01-12T12:46:18.213Z,13.18
2023-01-12T12:48:44.558Z,13.12
2023-01-12T12:51:10.998Z,13.08
2023-01-12T12:53:37.374Z,13.03
2023-01-12T12:56:04.012Z,12.97
2023-01-12T12:58:30.647Z,12.93
2023-01-12T13:00:57.072Z,12.88
2023-01-12T13:03:23.394Z,12.83
2023-01-12T13:05:49.813Z,12.74
2023-01-12T13:08:16.200Z,12.64
2023-01-12T13:10:42.557Z,12.56
2023-01-12T13:13:08.964Z,12.51
2023-01-12T13:15:35.344Z,12.51
2023-01-12T13:18:01.653Z,12.52
2023-01-12T13:20:28.017Z,12.50
2023-01-12T13:22:54.493Z,12.48
2023-01-12T13:25:20.877Z,12.45
2023-01-12T13:27:47.308Z,12.41
2023-01-12T13:30:13.685Z,12.40
2023-01-12T13:32:40.047Z,12.40
2023-01-12T13:35:06.529Z,12.37
2023-01-12T13:37:32.931Z,12.37
2023-01-12T13:39:59.311Z,12.35
2023-01-12T13:42:25.872Z,12.33
2023-01-12T13:44:52.287Z,12.33
2023-01-12T13:47:18.731Z,12.31
2023-01-12T13:49:45.147Z,12.29
2023-01-12T13:52:11.465Z,12.27
2023-01-12T13:54:37.787Z,12.28
2023-01-12T13:57:04.391Z,12.27
2023-01-12T13:59:30.782Z,12.27
2023-01-12T14:01:57.202Z,12.26
2023-01-12T14:04:23.856Z,12.25
2023-01-12T14:06:50.295Z,12.23
2023-01-12T14:09:16.634Z,12.20
2023-01-12T14:11:42.952Z,12.12
2023-01-12T14:14:09.534Z,12.04
2023-01-12T14:16:35.930Z,12.01
2023-01-12T14:19:02.252Z,12.01
2023-01-12T14:21:28.638Z,12.03
2023-01-12T14:23:55.051Z,12.02
2023-01-12T14:26:21.492Z,12.00
2023-01-12T14:28:47.924Z,12.00
2023-01-12T14:31:14.344Z,11.99
2023-01-12T14:33:40.643Z,11.95
2023-01-12T14:36:07.050Z,11.94
2023-01-12T14:38:33.424Z,11.85
2023-01-12T14:40:59.957Z,11.73
2023-01-12T14:43:26.382Z,11.53
2023-01-12T14:45:52.831Z,11.40
2023-01-12T14:48:19.203Z,11.29
2023-01-12T14:50:45.826Z,11.18
2023-01-12T14:53:12.142Z,11.07
2023-01-12T14:55:38.512Z,10.98
2023-01-12T14:58:05.126Z,10.90
2023-01-12T15:00:31.614Z,10.84
2023-01-12T15:02:57.884Z,10.77
2023-01-12T15:05:24.334Z,10.71
2023-01-12T15:07:50.670Z,10.64
2023-01-12T15:10:17.076Z,10.58
2023-01-12T15:12:43.572Z,10.54
2023-01-12T15:15:10.195Z,10.47
2023-01-12T15:17:36.592Z,10.41
2023-01-12T15:20:03.301Z,10.41
2023-01-12T15:22:29.604Z,10.43
2023-01-12T15:24:55.970Z,10.27
2023-01-12T15:27:22.364Z,10.20
2023-01-12T15:29:48.687Z,10.18
2023-01-12T15:32:15.056Z,10.20
2023-01-12T15:34:43.571Z,10.21
2023-01-12T15:37:09.965Z,10.24
2023-01-12T15:39:36.264Z,10.25
2023-01-12T15:42:02.913Z,10.28
2023-01-12T15:44:29.264Z,10.30
2023-01-12T15:46:55.836Z,10.31
2023-01-12T15:49:22.228Z,10.32
2023-01-12T15:51:48.582Z,10.34
2023-01-12T15:54:14.912Z,10.38
2023-01-12T15:56:41.601Z,10.40
2023-01-12T15:59:07.917Z,10.39
2023-01-12T16:01:35.966Z,10.37
2023-01-12T16:04:36.057Z,10.32
2023-01-12T16:06:27.054Z,10.26
2023-01-12T16:08:53.367Z,10.22
2023-01-12T16:11:19.746Z,10.21
2023-01-12T16:13:46.067Z,10.25
2023-01-12T16:16:12.729Z,10.28
2023-01-12T16:18:39.007Z,10.29
2023-01-12T16:21:05.380Z,10.33
2023-01-12T16:23:31.794Z,10.34
2023-01-12T16:25:58.493Z,10.36
2023-01-12T16:28:24.848Z,10.37
2023-01-12T16:30:51.256Z,10.38
2023-01-12T16:33:18.103Z,10.39
2023-01-12T16:35:44.407Z,10.39
2023-01-12T16:38:10.777Z,10.40
2023-01-12T16:40:37.159Z,10.40
2023-01-12T16:43:03.593Z,10.41
2023-01-12T16:45:30.033Z,10.41
2023-01-12T16:47:56.395Z,10.37
2023-01-12T16:50:22.960Z,10.29
2023-01-12T16:52:49.328Z,10.21
2023-01-12T16:55:15.724Z,10.18
2023-01-12T16:57:42.139Z,10.19
2023-01-12T17:00:08.458Z,10.23
2023-01-12T17:02:35.026Z,10.25
2023-01-12T17:05:01.533Z,10.28
2023-01-12T17:07:27.945Z,10.30
2023-01-12T17:09:54.321Z,10.31
2023-01-12T17:12:20.703Z,10.34
2023-01-12T17:14:47.198Z,10.36
2023-01-12T17:17:13.511Z,10.38
2023-01-12T17:19:42.452Z,10.40
2023-01-12T17:22:08.844Z,10.37
2023-01-12T17:24:35.308Z,10.38
2023-01-12T17:27:01.726Z,10.39
2023-01-12T17:29:28.221Z,10.41
2023-01-12T17:31:55.678Z,10.40
2023-01-12T17:34:21.211Z,10.31
2023-01-12T17:36:47.549Z,10.19
2023-01-12T17:39:13.927Z,10.13
2023-01-12T17:41:40.275Z,10.10
2023-01-12T17:44:06.922Z,10.13
2023-01-12T17:46:33.283Z,10.17
2023-01-12T17:48:59.640Z,10.23
2023-01-12T17:51:26.003Z,10.28
2023-01-12T17:53:52.336Z,10.33
2023-01-12T17:56:18.738Z,10.37
2023-01-12T17:58:45.187Z,10.40
2023-01-12T18:01:11.590Z,10.42
2023-01-12T18:03:37.813Z,10.45
2023-01-12T18:06:07.007Z,10.48
2023-01-12T18:08:30.885Z,10.49
2023-01-12T18:10:57.205Z,10.50
2023-01-12T18:13:23.540Z,10.50
2023-01-12T18:15:49.907Z,10.52
2023-01-12T18:18:16.376Z,10.47
2023-01-12T18:20:42.764Z,10.38
2023-01-12T18:23:09.464Z,10.29
2023-01-12T18:25:35.989Z,10.21
2023-01-12T18:28:02.345Z,10.19
2023-01-12T18:30:28.713Z,10.23
2023-01-12T18:32:55.454Z,10.26
2023-01-12T18:35:21.764Z,10.31
2023-01-12T18:37:48.086Z,10.33
2023-01-12T18:40:14.508Z,10.36
2023-01-12T18:42:41.180Z,10.36
2023-01-12T18:45:07.551Z,10.39
2023-01-12T18:47:33.954Z,10.41
2023-01-12T18:50:00.291Z,10.43
2023-01-12T18:52:26.650Z,10.42
2023-01-12T18:54:52.975Z,10.41
2023-01-12T18:57:19.317Z,10.40
2023-01-12T18:59:45.732Z,10.42
2023-01-12T19:02:12.097Z,10.47
2023-01-12T19:04:38.503Z,10.44
2023-01-12T19:07:04.961Z,10.35
2023-01-12T19:09:31.341Z,10.24
2023-01-12T19:11:57.817Z,10.15
2023-01-12T19:14:24.138Z,10.19
2023-01-12T19:16:50.483Z,10.23
2023-01-12T19:19:16.913Z,10.27
2023-01-12T19:21:43.328Z,10.28
2023-01-12T19:24:09.711Z,10.34
2023-01-12T19:26:36.123Z,10.37
2023-01-12T19:29:02.534Z,10.37
2023-01-12T19:31:28.937Z,10.37
2023-01-12T19:33:57.645Z,10.38
2023-01-12T19:36:24.024Z,10.35
2023-01-12T19:38:50.767Z,10.36
2023-01-12T19:41:17.680Z,10.39
2023-01-12T19:43:44.001Z,10.38
2023-01-12T19:46:10.456Z,10.41
2023-01-12T19:48:36.762Z,10.40
2023-01-12T19:51:03.079Z,10.35
2023-01-12T19:53:31.909Z,10.25
2023-01-12T19:55:58.268Z,10.17
2023-01-12T19:58:24.685Z,10.09
2023-01-12T20:00:51.230Z,10.12
2023-01-12T20:03:20.156Z,10.15
2023-01-12T20:05:46.522Z,10.19
2023-01-12T20:08:12.926Z,10.22
2023-01-12T20:10:39.297Z,10.24
2023-01-12T20:13:05.729Z,10.25
2023-01-12T20:15:32.141Z,10.26
2023-01-12T20:17:58.521Z,10.31
2023-01-12T20:20:24.928Z,10.32
2023-01-12T20:22:51.427Z,10.43
2023-01-12T20:25:18.243Z,10.90
2023-01-12T20:27:44.840Z,10.84
2023-01-12T20:30:12.366Z,10.66
2023-01-12T20:32:38.829Z,10.53
2023-01-12T20:35:05.199Z,10.41
2023-01-12T20:37:31.663Z,10.32
2023-01-12T20:39:58.083Z,10.24
2023-01-12T20:42:24.466Z,10.17
2023-01-12T20:44:50.917Z,10.10
2023-01-12T20:47:17.869Z,10.04
2023-01-12T20:49:44.268Z,10.00
2023-01-12T20:52:10.605Z,9.97
2023-01-12T20:54:37.031Z,9.93
2023-01-12T20:57:03.411Z,9.88
2023-01-12T20:59:29.766Z,9.86
2023-01-12T21:01:56.281Z,9.84
2023-01-12T21:04:22.530Z,9.80
2023-01-12T21:06:49.008Z,9.78
2023-01-12T21:09:15.379Z,9.75
2023-01-12T21:11:41.920Z,9.73
2023-01-12T21:14:08.222Z,9.72
2023-01-12T21:16:34.609Z,9.70
2023-01-12T21:19:00.898Z,9.67
2023-01-12T21:21:27.310Z,9.65
2023-01-12T21:23:53.706Z,9.63
2023-01-12T21:26:20.116Z,9.61
2023-01-12T21:28:46.481Z,9.60
2023-01-12T21:31:12.849Z,9.59
2023-01-12T21:33:39.211Z,9.56
2023-01-12T21:36:05.575Z,9.54
2023-01-12T21:38:32.035Z,9.52
2023-01-12T21:40:58.407Z,9.49
2023-01-12T21:43:24.940Z,9.48
2023-01-12T21:45:51.326Z,9.45
2023-01-12T21:48:17.609Z,9.44
2023-01-12T21:50:44.036Z,9.42
2023-01-12T21:53:10.431Z,9.39
2023-01-12T21:55:36.822Z,9.38
2023-01-12T21:58:03.200Z,9.35
2023-01-12T22:00:29.549Z,9.33
2023-01-12T22:02:55.904Z,9.33
2023-01-12T22:05:22.229Z,9.32
2023-01-12T22:07:48.589Z,9.29
2023-01-12T22:10:14.991Z,9.28
2023-01-12T22:12:41.404Z,9.27
2023-01-12T22:15:07.802Z,9.25
2023-01-12T22:17:34.155Z,9.25
2023-01-12T22:20:00.517Z,9.24
2023-01-12T22:22:26.933Z,9.22
2023-01-12T22:24:53.314Z,9.21
2023-01-12T22:27:19.668Z,9.19
2023-01-12T22:29:46.024Z,9.15
2023-01-12T22:32:12.337Z,9.18
2023-01-12T22:34:38.710Z,9.17
2023-01-12T22:37:05.095Z,9.15
2023-01-12T22:39:31.445Z,9.14
2023-01-12T22:41:57.833Z,9.13
2023-01-12T22:44:24.264Z,9.12
2023-01-12T22:46:50.673Z,9.12
2023-01-12T22:49:17.036Z,9.11
2023-01-12T22:51:43.473Z,9.09
2023-01-12T22:54:09.797Z,9.09
2023-01-12T22:56:36.132Z,9.07
2023-01-12T22:59:02.541Z,9.06
2023-01-12T23:01:28.889Z,9.06
2023-01-12T23:03:55.189Z,9.06
2023-01-12T23:06:21.739Z,9.04
2023-01-12T23:08:48.038Z,9.04
2023-01-12T23:11:14.351Z,9.04
2023-01-12T23:13:40.712Z,9.01
2023-01-12T23:16:07.139Z,9.00
2023-01-12T23:18:33.591Z,9.00
2023-01-12T23:20:59.908Z,9.00
2023-01-12T23:23:26.241Z,9.01
2023-01-12T23:25:52.590Z,8.99
2023-01-12T23:28:18.909Z,8.99
2023-01-12T23:30:45.238Z,9.00
2023-01-12T23:33:11.764Z,8.99
2023-01-12T23:35:38.097Z,8.99
2023-01-12T23:38:04.420Z,8.99
2023-01-12T23:40:31.013Z,8.98
2023-01-12T23:42:57.285Z,8.97
2023-01-12T23:45:23.599Z,8.98
2023-01-12T23:47:49.978Z,8.99
2023-01-12T23:50:16.282Z,8.98
2023-01-12T23:52:42.597Z,8.97
2023-01-12T23:55:09.015Z,8.97
2023-01-12T23:57:35.321Z,8.97
